N770XJ EDDF-LIMC
Flight info
| Callsign | N770XJ |
|---|---|
| Flight time | N/A |
| Altitude | 31000 |
| Route | ANEKI2L/18 ANEKI Y163 PABLA/N0497F330 Y163 NATOR DCT DITON DCT BASGO Z424 RIXUV |
| Aircraft | C750/M-SBDE3FGHRWXY/S |
Departure
| Time | N/A |
|---|---|
| Airport | Frankfurt Main Airport (EDDF) |
Arrival
| Time | 2026-05-05 22:12 |
|---|---|
| Airport | Milan Malpensa International Airport (LIMC) |
| Time | Latitude | Longitude | Altitude | Speed | Heading |
|---|---|---|---|---|---|
| 2026-05-05 21:14 | 46.41529 | 8.37318 | 22962 ft | 372 kts | 137° |
| 2026-05-05 21:15 | 46.39666 | 8.39922 | 22958 ft | 367 kts | 144° |
| 2026-05-05 21:15 | 46.37643 | 8.42135 | 22986 ft | 363 kts | 151° |
| 2026-05-05 21:15 | 46.35470 | 8.43974 | 22981 ft | 360 kts | 158° |
| 2026-05-05 21:15 | 46.33211 | 8.45398 | 22970 ft | 354 kts | 164° |
| 2026-05-05 21:16 | 46.30902 | 8.46414 | 22979 ft | 349 kts | 170° |
| 2026-05-05 21:16 | 46.28522 | 8.47046 | 22978 ft | 347 kts | 176° |
| 2026-05-05 21:16 | 46.26125 | 8.47321 | 22995 ft | 345 kts | 181° |
| 2026-05-05 21:16 | 46.23735 | 8.47256 | 22983 ft | 342 kts | 187° |
| 2026-05-05 21:17 | 46.21380 | 8.46801 | 22988 ft | 341 kts | 193° |
| 2026-05-05 21:17 | 46.19086 | 8.45976 | 22991 ft | 341 kts | 198° |
| 2026-05-05 21:17 | 46.16873 | 8.44791 | 22991 ft | 339 kts | 204° |
| 2026-05-05 21:17 | 46.14771 | 8.43269 | 22992 ft | 341 kts | 210° |
| 2026-05-05 21:18 | 46.12797 | 8.41422 | 22985 ft | 339 kts | 216° |
| 2026-05-05 21:18 | 46.10974 | 8.39268 | 22981 ft | 340 kts | 221° |
| 2026-05-05 21:18 | 46.09319 | 8.36828 | 22994 ft | 343 kts | 227° |
| 2026-05-05 21:18 | 46.07873 | 8.34163 | 22971 ft | 340 kts | 233° |
| 2026-05-05 21:19 | 46.06622 | 8.31243 | 22999 ft | 344 kts | 238° |
| 2026-05-05 21:19 | 46.05598 | 8.28118 | 22994 ft | 347 kts | 244° |
| 2026-05-05 21:19 | 46.04821 | 8.24831 | 22984 ft | 348 kts | 250° |
| 2026-05-05 21:19 | 46.04298 | 8.21391 | 22984 ft | 357 kts | 256° |
| 2026-05-05 21:20 | 46.04052 | 8.17842 | 22991 ft | 358 kts | 263° |
| 2026-05-05 21:20 | 46.04091 | 8.14256 | 22976 ft | 355 kts | 269° |
| 2026-05-05 21:20 | 46.04422 | 8.10699 | 22975 ft | 359 kts | 275° |
| 2026-05-05 21:20 | 46.05045 | 8.07192 | 22991 ft | 364 kts | 282° |
| 2026-05-05 21:21 | 46.05965 | 8.03754 | 22973 ft | 369 kts | 289° |
| 2026-05-05 21:21 | 46.07186 | 8.00447 | 22981 ft | 374 kts | 296° |
| 2026-05-05 21:21 | 46.08694 | 7.97351 | 22977 ft | 380 kts | 303° |
| 2026-05-05 21:21 | 46.10447 | 7.94555 | 22976 ft | 380 kts | 310° |
| 2026-05-05 21:22 | 46.12463 | 7.92042 | 22963 ft | 385 kts | 318° |
| 2026-05-05 21:22 | 46.14710 | 7.89886 | 22956 ft | 389 kts | 326° |
| 2026-05-05 21:22 | 46.17138 | 7.88150 | 22952 ft | 392 kts | 333° |
| 2026-05-05 21:22 | 46.19730 | 7.86857 | 22968 ft | 396 kts | 341° |
| 2026-05-05 21:23 | 46.22431 | 7.86055 | 22954 ft | 396 kts | 349° |
| 2026-05-05 21:23 | 46.25196 | 7.85697 | 22951 ft | 400 kts | 355° |
| 2026-05-05 21:23 | 46.27990 | 7.85839 | 22947 ft | 403 kts | 3° |
| 2026-05-05 21:23 | 46.30752 | 7.86517 | 22966 ft | 403 kts | 12° |
| 2026-05-05 21:24 | 46.33425 | 7.87704 | 22949 ft | 403 kts | 20° |
| 2026-05-05 21:24 | 46.35971 | 7.89392 | 22951 ft | 403 kts | 28° |
| 2026-05-05 21:24 | 46.38311 | 7.91517 | 22937 ft | 403 kts | 36° |
| 2026-05-05 21:24 | 46.40464 | 7.94096 | 22933 ft | 402 kts | 44° |
| 2026-05-05 21:25 | 46.42360 | 7.97055 | 22941 ft | 403 kts | 52° |
| 2026-05-05 21:25 | 46.43971 | 8.00345 | 22934 ft | 400 kts | 60° |
| 2026-05-05 21:25 | 46.45263 | 8.03891 | 22934 ft | 397 kts | 68° |
| 2026-05-05 21:25 | 46.46228 | 8.07654 | 22940 ft | 403 kts | 76° |
| 2026-05-05 21:26 | 46.46852 | 8.11594 | 22930 ft | 400 kts | 85° |
| 2026-05-05 21:26 | 46.47112 | 8.15568 | 22948 ft | 394 kts | 92° |
| 2026-05-05 21:26 | 46.47017 | 8.19531 | 22937 ft | 392 kts | 100° |
| 2026-05-05 21:26 | 46.46577 | 8.23422 | 22946 ft | 390 kts | 108° |
| 2026-05-05 21:27 | 46.45808 | 8.27154 | 22954 ft | 384 kts | 115° |
| 2026-05-05 21:27 | 46.44734 | 8.30681 | 22946 ft | 380 kts | 122° |
| 2026-05-05 21:27 | 46.43399 | 8.33911 | 22958 ft | 376 kts | 129° |
| 2026-05-05 21:27 | 46.41796 | 8.36889 | 22973 ft | 374 kts | 136° |
| 2026-05-05 21:28 | 46.39976 | 8.39534 | 22976 ft | 368 kts | 143° |
| 2026-05-05 21:28 | 46.37975 | 8.41809 | 22976 ft | 364 kts | 150° |
| 2026-05-05 21:28 | 46.35822 | 8.43705 | 22981 ft | 361 kts | 156° |
| 2026-05-05 21:28 | 46.33570 | 8.45199 | 22978 ft | 353 kts | 163° |
| 2026-05-05 21:29 | 46.31240 | 8.46289 | 22986 ft | 350 kts | 169° |
| 2026-05-05 21:29 | 46.28869 | 8.46977 | 22984 ft | 347 kts | 175° |
| 2026-05-05 21:29 | 46.26473 | 8.47298 | 22985 ft | 345 kts | 180° |
| 2026-05-05 21:29 | 46.24085 | 8.47289 | 22990 ft | 342 kts | 186° |
| 2026-05-05 21:30 | 46.21722 | 8.46891 | 22987 ft | 341 kts | 192° |
| 2026-05-05 21:30 | 46.19425 | 8.46122 | 22992 ft | 339 kts | 198° |
| 2026-05-05 21:30 | 46.17231 | 8.45012 | 22992 ft | 339 kts | 203° |
| 2026-05-05 21:30 | 46.15120 | 8.43552 | 23005 ft | 339 kts | 208° |
| 2026-05-05 21:31 | 46.13125 | 8.41762 | 22990 ft | 339 kts | 214° |
| 2026-05-05 21:31 | 46.11279 | 8.39665 | 22997 ft | 339 kts | 220° |
| 2026-05-05 21:31 | 46.09601 | 8.37285 | 22987 ft | 341 kts | 226° |
| 2026-05-05 21:31 | 46.08097 | 8.34622 | 22995 ft | 343 kts | 232° |
| 2026-05-05 21:32 | 46.06812 | 8.31736 | 23004 ft | 345 kts | 237° |
| 2026-05-05 21:32 | 46.05750 | 8.28643 | 22996 ft | 346 kts | 243° |
| 2026-05-05 21:32 | 46.04931 | 8.25382 | 22985 ft | 348 kts | 249° |
| 2026-05-05 21:32 | 46.04368 | 8.21981 | 22980 ft | 352 kts | 256° |
| 2026-05-05 21:33 | 46.04076 | 8.18506 | 22983 ft | 357 kts | 261° |
| 2026-05-05 21:33 | 46.04062 | 8.14927 | 22987 ft | 363 kts | 268° |
| 2026-05-05 21:33 | 46.04341 | 8.11345 | 22984 ft | 361 kts | 274° |
| 2026-05-05 21:33 | 46.04910 | 8.07825 | 22983 ft | 363 kts | 281° |
| 2026-05-05 21:34 | 46.05775 | 8.04373 | 22972 ft | 368 kts | 287° |
| 2026-05-05 21:34 | 46.06940 | 8.01046 | 22986 ft | 375 kts | 294° |
| 2026-05-05 21:34 | 46.08392 | 7.97912 | 22986 ft | 379 kts | 301° |
| 2026-05-05 21:34 | 46.10124 | 7.95020 | 22985 ft | 381 kts | 309° |
| 2026-05-05 21:35 | 46.12091 | 7.92460 | 22963 ft | 384 kts | 317° |
| 2026-05-05 21:35 | 46.14285 | 7.90250 | 22955 ft | 387 kts | 324° |
| 2026-05-05 21:35 | 46.16650 | 7.88456 | 22951 ft | 391 kts | 332° |
| 2026-05-05 21:35 | 46.19205 | 7.87077 | 22957 ft | 394 kts | 339° |
| 2026-05-05 21:36 | 46.21882 | 7.86176 | 22956 ft | 395 kts | 347° |
| 2026-05-05 21:36 | 46.24632 | 7.85739 | 22957 ft | 398 kts | 353° |
| 2026-05-05 21:36 | 46.27411 | 7.85761 | 22952 ft | 400 kts | 2° |
| 2026-05-05 21:36 | 46.30130 | 7.86437 | 22553 ft | 391 kts | 15° |
| 2026-05-05 21:37 | 46.32591 | 7.88179 | 21387 ft | 398 kts | 33° |
| 2026-05-05 21:37 | 46.34630 | 7.90758 | 20930 ft | 380 kts | 50° |
| 2026-05-05 21:37 | 46.36127 | 7.93912 | 20942 ft | 379 kts | 65° |
| 2026-05-05 21:37 | 46.37021 | 7.97504 | 20947 ft | 379 kts | 79° |
| 2026-05-05 21:38 | 46.37263 | 8.01279 | 20935 ft | 375 kts | 95° |
| 2026-05-05 21:38 | 46.36852 | 8.04984 | 20943 ft | 377 kts | 110° |
| 2026-05-05 21:38 | 46.35846 | 8.08367 | 20952 ft | 370 kts | 125° |
| 2026-05-05 21:38 | 46.34307 | 8.11284 | 20954 ft | 364 kts | 139° |
| 2026-05-05 21:39 | 46.32409 | 8.13601 | 20963 ft | 358 kts | 147° |
| 2026-05-05 21:39 | 46.30443 | 8.15798 | 20972 ft | 357 kts | 147° |
| 2026-05-05 21:39 | 46.28496 | 8.17984 | 20881 ft | 346 kts | 147° |
| 2026-05-05 21:39 | 46.26606 | 8.20113 | 19674 ft | 348 kts | 147° |
| 2026-05-05 21:40 | 46.24694 | 8.22241 | 18785 ft | 344 kts | 147° |
| 2026-05-05 21:40 | 46.22792 | 8.24368 | 18067 ft | 344 kts | 146° |
| 2026-05-05 21:40 | 46.20925 | 8.26456 | 17983 ft | 341 kts | 147° |
| 2026-05-05 21:40 | 46.19043 | 8.28504 | 17993 ft | 339 kts | 148° |
| 2026-05-05 21:41 | 46.17115 | 8.30468 | 17992 ft | 338 kts | 149° |
| 2026-05-05 21:41 | 46.15216 | 8.32409 | 18002 ft | 339 kts | 148° |
| 2026-05-05 21:41 | 46.13309 | 8.34425 | 18003 ft | 340 kts | 148° |
| 2026-05-05 21:41 | 46.11400 | 8.36443 | 18002 ft | 340 kts | 148° |
| 2026-05-05 21:42 | 46.09479 | 8.38443 | 18001 ft | 339 kts | 149° |
| 2026-05-05 21:42 | 46.07562 | 8.40440 | 18002 ft | 340 kts | 149° |
| 2026-05-05 21:42 | 46.05640 | 8.42441 | 17947 ft | 334 kts | 148° |
| 2026-05-05 21:42 | 46.03818 | 8.44356 | 17585 ft | 313 kts | 148° |
| 2026-05-05 21:43 | 46.02119 | 8.46130 | 17289 ft | 295 kts | 149° |
| 2026-05-05 21:43 | 46.00471 | 8.47819 | 16791 ft | 287 kts | 149° |
| 2026-05-05 21:43 | 45.98864 | 8.49474 | 16302 ft | 281 kts | 149° |
| 2026-05-05 21:43 | 45.97299 | 8.51108 | 15827 ft | 275 kts | 149° |
| 2026-05-05 21:44 | 45.95784 | 8.52686 | 15370 ft | 270 kts | 149° |
| 2026-05-05 21:44 | 45.94271 | 8.54252 | 14984 ft | 263 kts | 149° |
| 2026-05-05 21:44 | 45.92852 | 8.55728 | 14980 ft | 242 kts | 149° |
| 2026-05-05 21:44 | 45.91534 | 8.57098 | 14892 ft | 234 kts | 150° |
| 2026-05-05 21:45 | 45.90181 | 8.58483 | 14513 ft | 239 kts | 149° |
| 2026-05-05 21:45 | 45.88825 | 8.59883 | 14077 ft | 241 kts | 149° |
| 2026-05-05 21:45 | 45.87462 | 8.61291 | 13627 ft | 242 kts | 149° |
| 2026-05-05 21:45 | 45.86097 | 8.62702 | 13147 ft | 241 kts | 149° |
| 2026-05-05 21:46 | 45.84737 | 8.64106 | 12687 ft | 241 kts | 148° |
| 2026-05-05 21:46 | 45.83378 | 8.65507 | 12214 ft | 241 kts | 148° |
| 2026-05-05 21:46 | 45.82040 | 8.66889 | 11768 ft | 240 kts | 147° |
| 2026-05-05 21:46 | 45.80686 | 8.68285 | 11311 ft | 239 kts | 147° |
| 2026-05-05 21:47 | 45.79333 | 8.69672 | 10865 ft | 239 kts | 147° |
| 2026-05-05 21:47 | 45.77985 | 8.71055 | 10428 ft | 238 kts | 147° |
| 2026-05-05 21:47 | 45.76645 | 8.72434 | 10000 ft | 237 kts | 147° |
| 2026-05-05 21:47 | 45.75309 | 8.73813 | 9536 ft | 236 kts | 146° |
| 2026-05-05 21:48 | 45.73979 | 8.75189 | 9069 ft | 235 kts | 146° |
| 2026-05-05 21:48 | 45.72693 | 8.76527 | 8986 ft | 221 kts | 146° |
| 2026-05-05 21:48 | 45.71468 | 8.77808 | 8987 ft | 216 kts | 146° |
| 2026-05-05 21:48 | 45.70256 | 8.79075 | 8984 ft | 215 kts | 146° |
| 2026-05-05 21:49 | 45.69069 | 8.80317 | 8988 ft | 214 kts | 146° |
| 2026-05-05 21:49 | 45.67868 | 8.81575 | 8988 ft | 214 kts | 146° |
| 2026-05-05 21:49 | 45.66668 | 8.82832 | 8987 ft | 214 kts | 146° |
| 2026-05-05 21:49 | 45.65470 | 8.84088 | 8987 ft | 214 kts | 146° |
| 2026-05-05 21:50 | 45.64274 | 8.85343 | 8989 ft | 213 kts | 146° |
| 2026-05-05 21:50 | 45.63076 | 8.86601 | 8990 ft | 213 kts | 146° |
| 2026-05-05 21:50 | 45.61882 | 8.87857 | 8991 ft | 214 kts | 146° |
| 2026-05-05 21:50 | 45.60685 | 8.89116 | 8991 ft | 213 kts | 146° |
| 2026-05-05 21:51 | 45.59491 | 8.90372 | 8991 ft | 214 kts | 146° |
| 2026-05-05 21:51 | 45.58490 | 8.91930 | 8887 ft | 220 kts | 116° |
| 2026-05-05 21:51 | 45.58345 | 8.93353 | 8871 ft | 223 kts | 86° |
| 2026-05-05 21:51 | 45.59069 | 8.95285 | 8882 ft | 228 kts | 41° |
| 2026-05-05 21:52 | 45.62376 | 8.97570 | 9000 ft | 229 kts | 9° |
| 2026-05-05 21:52 | 45.63949 | 8.97843 | 9008 ft | 229 kts | 6° |
| 2026-05-05 21:52 | 45.65489 | 8.98424 | 8994 ft | 229 kts | 21° |
| 2026-05-05 21:53 | 45.67023 | 8.98908 | 8914 ft | 228 kts | 352° |
| 2026-05-05 21:53 | 45.67992 | 8.98428 | 8774 ft | 222 kts | 326° |
| 2026-05-05 21:53 | 45.68987 | 8.96792 | 8335 ft | 218 kts | 294° |
| 2026-05-05 21:53 | 45.69281 | 8.94696 | 7988 ft | 215 kts | 263° |
| 2026-05-05 21:54 | 45.68819 | 8.92756 | 7985 ft | 207 kts | 236° |
| 2026-05-05 21:54 | 45.67764 | 8.91402 | 7985 ft | 204 kts | 208° |
| 2026-05-05 21:54 | 45.66485 | 8.90605 | 7692 ft | 202 kts | 202° |
| 2026-05-05 21:54 | 45.65176 | 8.89817 | 7307 ft | 205 kts | 203° |
| 2026-05-05 21:55 | 45.63456 | 8.88752 | 6884 ft | 203 kts | 203° |
| 2026-05-05 21:55 | 45.62577 | 8.88214 | 6665 ft | 202 kts | 201° |
| 2026-05-05 21:55 | 45.61163 | 8.88102 | 6071 ft | 214 kts | 171° |
| 2026-05-05 21:55 | 45.59767 | 8.88577 | 6005 ft | 204 kts | 167° |
| 2026-05-05 21:56 | 45.58385 | 8.89003 | 6005 ft | 202 kts | 170° |
| 2026-05-05 21:56 | 45.56938 | 8.89327 | 6013 ft | 225 kts | 172° |
| 2026-05-05 21:56 | 45.55384 | 8.89661 | 6003 ft | 228 kts | 172° |
| 2026-05-05 21:56 | 45.53808 | 8.90016 | 6005 ft | 230 kts | 172° |
| 2026-05-05 21:57 | 45.52281 | 8.90363 | 5993 ft | 216 kts | 172° |
| 2026-05-05 21:57 | 45.50808 | 8.90693 | 5984 ft | 213 kts | 172° |
| 2026-05-05 21:57 | 45.49365 | 8.91119 | 5985 ft | 212 kts | 168° |
| 2026-05-05 21:57 | 45.47914 | 8.91496 | 5981 ft | 211 kts | 171° |
| 2026-05-05 21:58 | 45.46464 | 8.91848 | 5984 ft | 212 kts | 170° |
| 2026-05-05 21:58 | 45.45038 | 8.92234 | 5984 ft | 211 kts | 169° |
| 2026-05-05 21:58 | 45.43594 | 8.92633 | 5983 ft | 212 kts | 169° |
| 2026-05-05 21:58 | 45.42148 | 8.93026 | 5982 ft | 211 kts | 170° |
| 2026-05-05 21:59 | 45.40704 | 8.93417 | 5981 ft | 211 kts | 170° |
| 2026-05-05 21:59 | 45.39260 | 8.93809 | 5983 ft | 211 kts | 170° |
| 2026-05-05 21:59 | 45.37820 | 8.94199 | 5985 ft | 209 kts | 171° |
| 2026-05-05 21:59 | 45.36392 | 8.94586 | 5985 ft | 209 kts | 171° |
| 2026-05-05 22:00 | 45.34966 | 8.94972 | 5983 ft | 209 kts | 171° |
| 2026-05-05 22:00 | 45.33542 | 8.95357 | 5980 ft | 208 kts | 171° |
| 2026-05-05 22:00 | 45.32115 | 8.95743 | 5981 ft | 209 kts | 171° |
| 2026-05-05 22:00 | 45.30690 | 8.96129 | 5981 ft | 209 kts | 171° |
| 2026-05-05 22:01 | 45.29278 | 8.96516 | 5836 ft | 204 kts | 171° |
| 2026-05-05 22:01 | 45.27882 | 8.96892 | 5368 ft | 208 kts | 171° |
| 2026-05-05 22:01 | 45.26466 | 8.97277 | 5030 ft | 206 kts | 171° |
| 2026-05-05 22:01 | 45.25058 | 8.97659 | 4674 ft | 205 kts | 171° |
| 2026-05-05 22:02 | 45.23661 | 8.98038 | 4311 ft | 204 kts | 170° |
| 2026-05-05 22:02 | 45.22240 | 8.98426 | 3976 ft | 208 kts | 170° |
| 2026-05-05 22:02 | 45.20869 | 8.98231 | 3898 ft | 201 kts | 206° |
| 2026-05-05 22:02 | 45.19795 | 8.96968 | 3952 ft | 204 kts | 230° |
| 2026-05-05 22:03 | 45.19256 | 8.95111 | 3957 ft | 208 kts | 259° |
| 2026-05-05 22:03 | 45.19437 | 8.93077 | 3957 ft | 213 kts | 289° |
| 2026-05-05 22:03 | 45.20330 | 8.91395 | 3958 ft | 218 kts | 319° |
| 2026-05-05 22:03 | 45.21714 | 8.90516 | 3958 ft | 222 kts | 348° |
| 2026-05-05 22:04 | 45.23249 | 8.90573 | 4011 ft | 221 kts | 3° |
| 2026-05-05 22:04 | 45.24715 | 8.90117 | 3955 ft | 222 kts | 332° |
| 2026-05-05 22:04 | 45.25913 | 8.88833 | 3958 ft | 216 kts | 312° |
| 2026-05-05 22:04 | 45.26773 | 8.87095 | 3993 ft | 215 kts | 296° |
| 2026-05-05 22:05 | 45.27298 | 8.85123 | 3998 ft | 214 kts | 282° |
| 2026-05-05 22:05 | 45.27731 | 8.83109 | 3914 ft | 216 kts | 298° |
| 2026-05-05 22:05 | 45.28886 | 8.81829 | 3924 ft | 217 kts | 343° |
| 2026-05-05 22:05 | 45.30380 | 8.81883 | 4023 ft | 219 kts | 9° |
| 2026-05-05 22:06 | 45.31899 | 8.81908 | 3997 ft | 218 kts | 352° |
| 2026-05-05 22:06 | 45.33387 | 8.81497 | 4010 ft | 219 kts | 348° |
| 2026-05-05 22:06 | 45.34877 | 8.81078 | 4003 ft | 218 kts | 348° |
| 2026-05-05 22:06 | 45.36337 | 8.80673 | 3993 ft | 212 kts | 349° |
| 2026-05-05 22:07 | 45.37767 | 8.80289 | 3988 ft | 209 kts | 349° |
| 2026-05-05 22:07 | 45.39189 | 8.79900 | 3982 ft | 208 kts | 349° |
| 2026-05-05 22:07 | 45.40609 | 8.79509 | 3984 ft | 208 kts | 349° |
| 2026-05-05 22:07 | 45.42026 | 8.79120 | 3989 ft | 208 kts | 349° |
| 2026-05-05 22:08 | 45.43444 | 8.78730 | 3986 ft | 207 kts | 348° |
| 2026-05-05 22:08 | 45.44855 | 8.78345 | 3982 ft | 202 kts | 349° |
| 2026-05-05 22:08 | 45.46203 | 8.77978 | 3818 ft | 194 kts | 349° |
| 2026-05-05 22:08 | 45.47508 | 8.77617 | 3547 ft | 188 kts | 349° |
| 2026-05-05 22:09 | 45.48783 | 8.77265 | 3302 ft | 183 kts | 349° |
| 2026-05-05 22:09 | 45.50018 | 8.76926 | 3054 ft | 180 kts | 350° |
| 2026-05-05 22:09 | 45.51257 | 8.76589 | 2820 ft | 182 kts | 350° |
| 2026-05-05 22:09 | 45.52481 | 8.76256 | 2577 ft | 182 kts | 350° |
| 2026-05-05 22:10 | 45.53724 | 8.75917 | 2345 ft | 181 kts | 350° |
| 2026-05-05 22:10 | 45.54961 | 8.75574 | 2101 ft | 181 kts | 350° |
| 2026-05-05 22:10 | 45.56192 | 8.75236 | 1851 ft | 180 kts | 351° |
| 2026-05-05 22:10 | 45.57409 | 8.74889 | 1607 ft | 177 kts | 349° |
| 2026-05-05 22:11 | 45.58600 | 8.74569 | 1358 ft | 171 kts | 351° |
| 2026-05-05 22:11 | 45.59764 | 8.74259 | 1153 ft | 169 kts | 349° |
| 2026-05-05 22:11 | 45.60854 | 8.73952 | 918 ft | 151 kts | 348° |
| 2026-05-05 22:11 | 45.61797 | 8.73688 | 750 ft | 126 kts | 348° |
| 2026-05-05 22:12 | 45.62572 | 8.73472 | 736 ft | 102 kts | 347° |
| 2026-05-05 22:12 | 45.63202 | 8.73300 | 733 ft | 86 kts | 349° |
| 2026-05-05 22:12 | 45.63650 | 8.73151 | 736 ft | 42 kts | 330° |
| 2026-05-05 22:12 | 45.63849 | 8.72840 | 733 ft | 42 kts | 303° |
| 2026-05-05 22:13 | 45.63899 | 8.72735 | 733 ft | 2 kts | 305° |
| 2026-05-05 22:13 | 45.63916 | 8.72702 | 733 ft | 6 kts | 305° |
| 2026-05-05 22:13 | 45.63951 | 8.72630 | 733 ft | 11 kts | 304° |
| 2026-05-05 22:13 | 45.64018 | 8.72541 | 733 ft | 16 kts | 338° |
| 2026-05-05 22:14 | 45.64138 | 8.72503 | 733 ft | 20 kts | 351° |
| 2026-05-05 22:14 | 45.64281 | 8.72466 | 733 ft | 16 kts | 350° |
| 2026-05-05 22:14 | 45.64302 | 8.72461 | 733 ft | 2 kts | 350° |
| 2026-05-05 22:14 | 45.64332 | 8.72450 | 733 ft | 6 kts | 336° |
| 2026-05-05 22:15 | 45.64344 | 8.72445 | 733 ft | 0 kts | 346° |
| 2026-05-05 22:17 | 45.64350 | 8.72443 | 733 ft | 3 kts | 346° |
| 2026-05-05 22:17 | 45.64377 | 8.72426 | 732 ft | 4 kts | 276° |
| 2026-05-05 22:18 | 45.64367 | 8.72354 | 733 ft | 11 kts | 259° |
| 2026-05-05 22:18 | 45.64384 | 8.72233 | 733 ft | 16 kts | 320° |
| 2026-05-05 22:18 | 45.64479 | 8.72115 | 733 ft | 20 kts | 314° |
| 2026-05-05 22:18 | 45.64506 | 8.71937 | 735 ft | 20 kts | 256° |
| 2026-05-05 22:19 | 45.64472 | 8.71723 | 732 ft | 23 kts | 257° |
| 2026-05-05 22:19 | 45.64357 | 8.71671 | 732 ft | 18 kts | 165° |
| 2026-05-05 22:19 | 45.64273 | 8.71631 | 732 ft | 12 kts | 262° |
| 2026-05-05 22:19 | 45.64278 | 8.71566 | 732 ft | 4 kts | 327° |
| 2026-05-05 22:20 | 45.64299 | 8.71551 | 732 ft | 4 kts | 342° |
| 2026-05-05 22:20 | 45.64343 | 8.71537 | 732 ft | 9 kts | 347° |
| 2026-05-05 22:20 | 45.64405 | 8.71530 | 732 ft | 8 kts | 30° |
| 2026-05-05 22:20 | 45.64426 | 8.71542 | 732 ft | 3 kts | 314° |
| 2026-05-05 22:21 | 45.64410 | 8.71524 | 732 ft | 5 kts | 178° |
| 2026-05-05 22:21 | 45.64408 | 8.71524 | 732 ft | 0 kts | 178° |